Time;durP1;ratioP1;P1;durP2;ratioP2;P2;SDS_P1;SDS_P2;PMS_P1;PMS_P2;Temp;Humidity;BMP_temperature;BMP_pressure;BME280_temperature;BME280_humidity;BME280_pressure;Samples;Min_cycle;Max_cycle;Signal;HPM_P1;HPM_P2
2022/06/02 00:00:35;;;;;;;17.05;9.63;;;;;;;;;;5012478;28;93180;-70
2022/06/02 00:03:20;;;;;;;10.98;9.75;;;;;;;;;;4999118;28;92999;-70
2022/06/02 00:06:05;;;;;;;10.70;9.80;;;;;;;;;;4997426;28;96824;-70
2022/06/02 00:08:55;;;;;;;11.43;10.35;;;;;;;;;;5012119;28;94330;-70
2022/06/02 00:11:29;;;;;;;13.20;11.77;;;;;;;;;;5011804;28;93316;-70
2022/06/02 00:13:56;;;;;;;14.50;13.00;;;;;;;;;;5012234;28;92520;-70
2022/06/02 00:16:30;;;;;;;14.25;12.90;;;;;;;;;;5011232;28;92527;-70
2022/06/02 00:19:02;;;;;;;13.57;12.38;;;;;;;;;;5012105;28;93166;-70
2022/06/02 00:21:36;;;;;;;15.05;13.15;;;;;;;;;;4999726;28;93264;-70
2022/06/02 00:24:08;;;;;;;15.65;14.05;;;;;;;;;;5005672;28;93859;-70
2022/06/02 00:26:45;;;;;;;14.85;13.65;;;;;;;;;;5014278;28;93791;-70
2022/06/02 00:29:11;;;;;;;14.27;12.95;;;;;;;;;;5016860;28;92459;-70
2022/06/02 00:31:58;;;;;;;15.82;14.35;;;;;;;;;;5013072;28;95669;-70
2022/06/02 00:34:31;;;;;;;19.08;14.13;;;;;;;;;;5014988;28;92455;-71
2022/06/02 00:36:59;;;;;;;;;;;;;;;;;;5013709;28;93462;-70
2022/06/02 00:39:26;;;;;;;14.93;13.52;;;;;;;;;;4997253;28;105599;-70
2022/06/02 00:41:53;;;;;;;14.38;13.15;;;;;;;;;;5034710;28;92429;-70
2022/06/02 00:44:19;;;;;;;15.15;13.57;;;;;;;;;;5034358;28;93489;-70
2022/06/02 00:46:51;;;;;;;15.73;14.32;;;;;;;;;;5034595;28;93305;-70
2022/06/02 00:49:20;;;;;;;17.77;14.60;;;;;;;;;;5038376;27;91697;-70
2022/06/02 00:52:02;;;;;;;16.63;15.13;;;;;;;;;;5033664;28;93321;-70
2022/06/02 00:57:34;;;;;;;17.63;15.90;;;;;;;;;;5032219;28;94905;-70
2022/06/02 01:00:00;;;;;;;19.15;16.45;;;;;;;;;;5027005;28;94683;-70
2022/06/02 01:02:32;;;;;;;18.02;16.15;;;;;;;;;;4998423;28;92726;-70
2022/06/02 01:05:00;;;;;;;17.70;15.93;;;;;;;;;;4995449;28;93993;-70
2022/06/02 01:07:34;;;;;;;19.40;17.35;;;;;;;;;;5013373;28;94076;-70
2022/06/02 01:10:06;;;;;;;18.67;16.88;;;;;;;;;;5015015;28;92467;-70
2022/06/02 01:12:42;;;;;;;18.85;16.92;;;;;;;;;;5016368;28;93338;-70
2022/06/02 01:15:20;;;;;;;19.73;17.83;;;;;;;;;;5015747;28;91932;-70
2022/06/02 01:17:52;;;;;;;19.80;17.77;;;;;;;;;;5014529;28;93560;-70
2022/06/02 01:20:18;;;;;;;20.13;18.05;;;;;;;;;;5013939;28;93207;-70
2022/06/02 01:22:50;;;;;;;21.17;18.98;;;;;;;;;;4999536;28;95080;-70
2022/06/02 01:25:32;;;;;;;21.98;19.92;;;;;;;;;;4994262;28;96448;-70
2022/06/02 01:28:01;;;;;;;23.95;20.35;;;;;;;;;;4993973;28;94222;-70
2022/06/02 01:30:33;;;;;;;24.73;22.23;;;;;;;;;;4994578;28;92539;-70
2022/06/02 01:33:18;;;;;;;25.15;20.67;;;;;;;;;;4993842;28;94326;-70
2022/06/02 01:35:47;;;;;;;23.67;20.55;;;;;;;;;;5005630;28;92492;-70
2022/06/02 01:38:17;;;;;;;25.15;22.02;;;;;;;;;;5011097;28;94079;-69
2022/06/02 01:40:48;;;;;;;24.33;21.85;;;;;;;;;;4993443;28;93565;-70
2022/06/02 01:43:17;;;;;;;23.85;21.30;;;;;;;;;;4994343;28;93107;-70
2022/06/02 01:45:52;;;;;;;26.38;23.23;;;;;;;;;;4994308;28;92922;-70
2022/06/02 01:48:37;;;;;;;28.30;24.45;;;;;;;;;;4999849;28;95730;-70
2022/06/02 01:51:08;;;;;;;26.92;24.02;;;;;;;;;;5014257;28;92561;-70
2022/06/02 01:53:44;;;;;;;26.73;22.23;;;;;;;;;;5013961;28;93999;-71
2022/06/02 01:56:20;;;;;;;25.75;23.10;;;;;;;;;;5013417;28;94387;-70
2022/06/02 01:58:46;;;;;;;28.17;23.02;;;;;;;;;;5010232;28;93502;-70
2022/06/02 02:01:23;;;;;;;27.77;24.77;;;;;;;;;;4993933;28;93432;-70
2022/06/02 02:04:10;;;;;;;31.33;25.92;;;;;;;;;;4994183;28;92562;-70
2022/06/02 02:07:00;;;;;;;33.88;26.50;;;;;;;;;;5012356;28;93127;-70
2022/06/02 02:09:45;;;;;;;30.17;26.95;;;;;;;;;;5012856;28;94624;-72
2022/06/02 02:12:28;;;;;;;33.33;24.88;;;;;;;;;;5014019;28;92760;-72
2022/06/02 02:15:15;;;;;;;29.17;25.95;;;;;;;;;;5003383;28;94915;-73
2022/06/02 02:17:53;;;;;;;28.90;25.90;;;;;;;;;;4993356;28;93311;-70
2022/06/02 02:20:24;;;;;;;31.13;25.90;;;;;;;;;;4993918;28;92489;-70
2022/06/02 02:22:55;;;;;;;27.63;24.65;;;;;;;;;;5008086;28;94882;-71
2022/06/02 02:25:26;;;;;;;27.67;24.75;;;;;;;;;;5013646;28;93310;-70
2022/06/02 02:28:14;;;;;;;26.02;23.33;;;;;;;;;;5013726;28;93944;-70
2022/06/02 02:30:43;;;;;;;31.85;23.90;;;;;;;;;;5012369;28;93436;-70
2022/06/02 02:33:28;;;;;;;27.30;23.63;;;;;;;;;;5013971;28;91880;-70
2022/06/02 02:36:04;;;;;;;26.50;23.73;;;;;;;;;;5012981;28;92670;-70
2022/06/02 02:38:45;;;;;;;26.75;23.83;;;;;;;;;;5012132;28;93729;-70
2022/06/02 02:41:15;;;;;;;26.42;23.80;;;;;;;;;;5030683;27;95087;-69
2022/06/02 02:44:02;;;;;;;28.65;24.67;;;;;;;;;;5035199;28;95420;-70
2022/06/02 02:46:37;;;;;;;31.80;25.55;;;;;;;;;;5032999;28;93300;-70
2022/06/02 02:49:06;;;;;;;31.05;25.05;;;;;;;;;;5032499;27;93197;-70
2022/06/02 02:51:52;;;;;;;30.00;25.80;;;;;;;;;;5032331;28;94164;-70
2022/06/02 02:54:18;;;;;;;29.08;24.67;;;;;;;;;;5033076;28;92485;-70
2022/06/02 02:56:50;;;;;;;31.50;24.52;;;;;;;;;;5031972;28;92890;-70
2022/06/02 02:59:37;;;;;;;27.00;24.00;;;;;;;;;;5033336;27;93242;-70
2022/06/02 03:02:03;;;;;;;29.88;25.25;;;;;;;;;;5032987;28;92716;-70
2022/06/02 03:04:34;;;;;;;29.25;26.15;;;;;;;;;;5028736;28;94210;-70
2022/06/02 03:07:01;;;;;;;32.17;26.13;;;;;;;;;;5004980;28;96902;-70
2022/06/02 03:09:32;;;;;;;28.92;25.75;;;;;;;;;;5012494;28;96378;-70
2022/06/02 03:12:05;;;;;;;30.95;27.02;;;;;;;;;;5012275;28;94317;-70
2022/06/02 03:14:31;;;;;;;28.92;24.40;;;;;;;;;;5013208;28;92522;-70
2022/06/02 03:17:03;;;;;;;29.25;25.05;;;;;;;;;;5012569;28;93177;-70
2022/06/02 03:19:49;;;;;;;29.85;25.73;;;;;;;;;;5011778;28;94028;-70
2022/06/02 03:22:29;;;;;;;31.27;24.52;;;;;;;;;;5012761;28;92530;-70
2022/06/02 03:25:01;;;;;;;28.17;24.08;;;;;;;;;;5013250;28;93007;-70
2022/06/02 03:27:30;;;;;;;28.40;25.52;;;;;;;;;;5011372;28;94135;-69
2022/06/02 03:30:00;;;;;;;30.33;26.55;;;;;;;;;;5016657;28;93077;-69
2022/06/02 03:32:39;;;;;;;33.60;27.00;;;;;;;;;;5010533;28;96772;-69
2022/06/02 03:35:24;;;;;;;28.85;25.73;;;;;;;;;;5012737;28;93181;-69
2022/06/02 03:38:08;;;;;;;31.77;27.42;;;;;;;;;;5012766;28;93968;-70
2022/06/02 03:40:52;;;;;;;30.73;26.15;;;;;;;;;;5011393;28;93244;-69
2022/06/02 03:43:28;;;;;;;31.38;26.25;;;;;;;;;;5012692;28;92437;-69
2022/06/02 03:46:33;;;;;;;28.73;25.70;;;;;;;;;;5012041;28;93024;-70
2022/06/02 03:49:07;;;;;;;28.60;25.45;;;;;;;;;;4969568;28;94255;-69
2022/06/02 03:51:40;;;;;;;27.65;24.27;;;;;;;;;;4970625;28;91862;-70
2022/06/02 03:54:26;;;;;;;32.53;25.02;;;;;;;;;;5007687;27;92536;-70
2022/06/02 03:57:11;;;;;;;27.27;24.33;;;;;;;;;;5032500;28;92460;-69
2022/06/02 03:59:54;;;;;;;27.95;24.45;;;;;;;;;;5030235;27;94881;-69
2022/06/02 04:02:28;;;;;;;27.50;24.77;;;;;;;;;;5030330;28;93431;-69
2022/06/02 04:05:05;;;;;;;29.20;25.20;;;;;;;;;;4997910;28;92533;-69
2022/06/02 04:07:37;;;;;;;27.13;24.10;;;;;;;;;;4995659;28;94044;-69
2022/06/02 04:10:04;;;;;;;28.92;24.00;;;;;;;;;;4995446;28;93787;-69
2022/06/02 04:15:24;;;;;;;26.05;23.40;;;;;;;;;;4995797;28;92702;-69
2022/06/02 04:18:01;;;;;;;25.85;22.92;;;;;;;;;;4999511;28;91690;-69
2022/06/02 04:20:40;;;;;;;27.70;24.52;;;;;;;;;;4995573;28;93365;-69
2022/06/02 04:23:21;;;;;;;26.20;23.65;;;;;;;;;;4994916;28;94213;-69
2022/06/02 04:25:47;;;;;;;28.23;25.55;;;;;;;;;;4994157;28;94847;-69
2022/06/02 04:28:20;;;;;;;28.25;24.00;;;;;;;;;;4995431;28;96560;-69
2022/06/02 04:31:05;;;;;;;28.10;24.90;;;;;;;;;;4994319;28;94191;-69
2022/06/02 04:33:33;;;;;;;25.60;23.15;;;;;;;;;;4995351;28;93049;-69
2022/06/02 04:36:08;;;;;;;25.92;23.23;;;;;;;;;;4994814;28;92942;-69
2022/06/02 04:38:53;;;;;;;25.85;23.17;;;;;;;;;;4995293;28;92552;-69
2022/06/02 04:41:54;;;;;;;26.17;23.38;;;;;;;;;;4998439;28;92462;-69
2022/06/02 04:44:27;;;;;;;25.05;22.50;;;;;;;;;;4992335;28;93582;-69
2022/06/02 04:47:03;;;;;;;26.95;22.02;;;;;;;;;;4994730;28;93386;-69
2022/06/02 04:49:48;;;;;;;24.52;22.02;;;;;;;;;;4994768;28;94007;-69
2022/06/02 04:52:35;;;;;;;24.63;22.17;;;;;;;;;;4993128;28;95943;-69
2022/06/02 04:55:09;;;;;;;25.17;21.52;;;;;;;;;;4992867;28;92501;-70
2022/06/02 04:57:51;;;;;;;26.33;22.00;;;;;;;;;;4994304;28;93131;-70
2022/06/02 05:00:17;;;;;;;24.60;22.10;;;;;;;;;;4995194;28;94234;-70
2022/06/02 05:03:03;;;;;;;23.02;20.73;;;;;;;;;;4997913;28;92503;-69
2022/06/02 05:05:45;;;;;;;23.67;21.30;;;;;;;;;;4993439;28;93306;-69
2022/06/02 05:08:30;;;;;;;23.23;21.02;;;;;;;;;;4996481;27;92725;-69
2022/06/02 05:11:06;;;;;;;22.00;19.73;;;;;;;;;;4995641;28;92426;-70
2022/06/02 05:13:51;;;;;;;23.27;19.33;;;;;;;;;;4994906;28;93490;-70
2022/06/02 05:16:20;;;;;;;19.85;17.75;;;;;;;;;;4995205;28;92475;-70
2022/06/02 05:18:54;;;;;;;20.40;18.30;;;;;;;;;;4993169;28;95861;-70
2022/06/02 05:21:27;;;;;;;22.48;18.85;;;;;;;;;;4994829;28;93275;-70
2022/06/02 05:24:04;;;;;;;20.77;17.88;;;;;;;;;;4998036;28;92620;-70
2022/06/02 05:26:31;;;;;;;19.75;17.65;;;;;;;;;;5015498;28;93097;-70
2022/06/02 05:29:00;;;;;;;19.17;17.27;;;;;;;;;;5014786;28;93064;-70
2022/06/02 05:31:49;;;;;;;19.50;17.50;;;;;;;;;;5014252;28;93351;-70
2022/06/02 05:34:35;;;;;;;24.35;16.70;;;;;;;;;;5007980;28;92804;-70
2022/06/02 05:37:16;;;;;;;16.85;15.20;;;;;;;;;;5014808;28;91749;-70
2022/06/02 05:40:01;;;;;;;18.73;16.17;;;;;;;;;;5012958;28;92593;-69
2022/06/02 05:42:43;;;;;;;17.05;15.48;;;;;;;;;;5005472;28;93588;-69
2022/06/02 05:45:21;;;;;;;15.77;14.18;;;;;;;;;;4993154;28;94830;-69
2022/06/02 05:47:48;;;;;;;15.05;13.43;;;;;;;;;;4993767;28;95566;-69
2022/06/02 05:50:30;;;;;;;16.17;13.73;;;;;;;;;;4997304;28;94064;-70
2022/06/02 05:53:02;;;;;;;13.73;12.37;;;;;;;;;;4994376;28;93931;-69
2022/06/02 05:55:49;;;;;;;11.25;10.15;;;;;;;;;;4993610;28;93478;-70
2022/06/02 05:58:33;;;;;;;11.38;10.18;;;;;;;;;;4994458;28;92452;-70
2022/06/02 06:01:12;;;;;;;11.15;9.68;;;;;;;;;;4993425;28;93120;-69
2022/06/02 06:03:44;;;;;;;8.75;7.88;;;;;;;;;;4994916;28;92607;-70
2022/06/02 06:06:24;;;;;;;8.35;7.55;;;;;;;;;;4999373;28;93820;-70
2022/06/02 06:09:09;;;;;;;8.27;7.57;;;;;;;;;;5011192;28;94015;-72
2022/06/02 06:11:50;;;;;;;8.13;6.68;;;;;;;;;;5014965;28;95747;-71
2022/06/02 06:14:19;;;;;;;7.30;6.60;;;;;;;;;;5017672;28;92430;-71
2022/06/02 06:16:49;;;;;;;7.82;7.03;;;;;;;;;;5004009;28;94163;-71
2022/06/02 06:19:15;;;;;;;6.63;5.95;;;;;;;;;;4996377;28;92540;-71
2022/06/02 06:22:01;;;;;;;6.72;5.32;;;;;;;;;;5019128;28;92954;-72
2022/06/02 06:24:40;;;;;;;6.90;5.63;;;;;;;;;;4993221;28;94152;-71
2022/06/02 06:27:20;;;;;;;5.32;3.58;;;;;;;;;;5002722;28;92554;-71
2022/06/02 06:30:01;;;;;;;4.60;3.70;;;;;;;;;;5012873;28;93020;-70
2022/06/02 06:32:31;;;;;;;5.20;4.60;;;;;;;;;;4994321;28;94297;-71
2022/06/02 06:35:03;;;;;;;6.50;5.05;;;;;;;;;;4995840;28;92513;-70
2022/06/02 06:37:29;;;;;;;5.90;4.60;;;;;;;;;;5003882;28;95244;-70
2022/06/02 06:40:07;;;;;;;4.40;4.07;;;;;;;;;;4992057;28;92481;-70
2022/06/02 06:42:43;;;;;;;9.10;4.82;;;;;;;;;;4996171;28;93363;-71
2022/06/02 06:45:29;;;;;;;5.43;4.50;;;;;;;;;;5012369;28;93396;-71
2022/06/02 06:48:00;;;;;;;5.63;4.63;;;;;;;;;;5008708;28;94433;-72
2022/06/02 06:50:32;;;;;;;5.93;4.75;;;;;;;;;;5016118;28;92997;-72
2022/06/02 06:53:17;;;;;;;5.18;4.75;;;;;;;;;;5005747;28;92657;-69
2022/06/02 06:56:04;;;;;;;5.80;5.25;;;;;;;;;;5011922;28;92352;-69
2022/06/02 06:58:34;;;;;;;6.15;5.47;;;;;;;;;;4993131;28;93419;-69
2022/06/02 07:01:26;;;;;;;5.25;4.60;;;;;;;;;;4997094;28;93823;-68
2022/06/02 07:04:12;;;;;;;5.03;4.15;;;;;;;;;;4997847;28;94939;-69
2022/06/02 07:06:54;;;;;;;4.97;3.55;;;;;;;;;;4999262;28;93577;-70
2022/06/02 07:09:28;;;;;;;7.97;4.03;;;;;;;;;;4993507;28;92504;-70
2022/06/02 07:15:19;;;;;;;3.65;2.70;;;;;;;;;;5012015;28;93443;-70
2022/06/02 07:17:52;;;;;;;3.55;3.15;;;;;;;;;;5000170;28;92558;-70
2022/06/02 07:20:35;;;;;;;4.65;3.35;;;;;;;;;;5006521;28;92403;-70
2022/06/02 07:23:07;;;;;;;7.82;3.13;;;;;;;;;;5012473;28;92721;-70
2022/06/02 07:25:53;;;;;;;4.50;3.63;;;;;;;;;;5001110;28;92949;-70
2022/06/02 07:28:29;;;;;;;3.15;2.88;;;;;;;;;;5013066;28;93327;-70
2022/06/02 07:31:00;;;;;;;3.47;3.10;;;;;;;;;;4996799;27;94908;-70
2022/06/02 07:33:33;;;;;;;5.03;3.30;;;;;;;;;;4992532;28;96401;-70
2022/06/02 07:36:06;;;;;;;5.65;3.40;;;;;;;;;;5003128;28;92801;-70
2022/06/02 07:38:51;;;;;;;7.25;3.08;;;;;;;;;;5015268;28;94806;-71
2022/06/02 07:41:21;;;;;;;9.35;4.05;;;;;;;;;;5011095;28;93249;-70
2022/06/02 07:44:06;;;;;;;3.75;3.00;;;;;;;;;;5012889;28;93861;-70
2022/06/02 07:46:32;;;;;;;3.85;3.38;;;;;;;;;;5015555;28;93183;-70
2022/06/02 07:49:06;;;;;;;4.00;3.10;;;;;;;;;;5013211;28;92716;-70
2022/06/02 07:51:48;;;;;;;3.78;3.10;;;;;;;;;;5013126;28;92561;-71
2022/06/02 07:54:29;;;;;;;4.28;2.88;;;;;;;;;;5010892;28;93939;-70
2022/06/02 07:57:00;;;;;;;3.03;2.63;;;;;;;;;;5005453;28;95384;-71
2022/06/02 07:59:39;;;;;;;2.85;2.25;;;;;;;;;;5012787;28;92724;-71
2022/06/02 08:02:20;;;;;;;4.60;2.30;;;;;;;;;;5002188;28;93292;-72
2022/06/02 08:04:56;;;;;;;4.93;2.20;;;;;;;;;;4995341;28;93734;-72
2022/06/02 08:07:22;;;;;;;4.32;2.38;;;;;;;;;;4998117;28;93358;-71
2022/06/02 08:10:00;;;;;;;5.63;2.30;;;;;;;;;;4996262;28;93878;-70
2022/06/02 08:12:30;;;;;;;2.00;1.73;;;;;;;;;;4996388;28;93176;-70
2022/06/02 08:15:17;;;;;;;6.13;2.58;;;;;;;;;;4993337;27;93069;-71
2022/06/02 08:17:46;;;;;;;2.38;1.88;;;;;;;;;;4993926;28;94912;-70
2022/06/02 08:20:28;;;;;;;3.85;2.67;;;;;;;;;;5000801;28;92466;-71
2022/06/02 08:22:58;;;;;;;6.22;1.80;;;;;;;;;;5007007;28;95363;-71
2022/06/02 08:25:28;;;;;;;5.07;1.80;;;;;;;;;;4997829;28;93307;-71
2022/06/02 08:28:13;;;;;;;2.97;1.92;;;;;;;;;;4992279;28;93893;-71
2022/06/02 08:30:58;;;;;;;2.67;1.48;;;;;;;;;;4991414;28;93154;-71
2022/06/02 08:33:57;;;;;;;5.38;1.92;;;;;;;;;;4998697;28;93774;-71
2022/06/02 08:36:23;;;;;;;2.83;1.73;;;;;;;;;;4978647;28;93688;-72
2022/06/02 08:38:50;;;;;;;3.38;1.88;;;;;;;;;;5003261;28;93427;-71
2022/06/02 08:41:28;;;;;;;2.30;1.70;;;;;;;;;;5000251;28;91818;-71
2022/06/02 08:44:14;;;;;;;3.90;1.60;;;;;;;;;;4992392;28;93582;-71
2022/06/02 08:46:55;;;;;;;4.18;1.80;;;;;;;;;;4992685;28;94331;-71
2022/06/02 08:49:53;;;;;;;2.70;1.85;;;;;;;;;;4995144;28;96192;-71
2022/06/02 08:52:38;;;;;;;4.65;1.80;;;;;;;;;;4995367;28;96244;-70
2022/06/02 08:55:23;;;;;;;2.30;1.55;;;;;;;;;;4998345;28;94140;-73
2022/06/02 08:58:11;;;;;;;1.77;1.50;;;;;;;;;;5002749;28;92646;-71
2022/06/02 09:00:40;;;;;;;3.88;1.88;;;;;;;;;;4995650;28;94357;-71
2022/06/02 09:03:06;;;;;;;3.95;1.88;;;;;;;;;;5001672;28;92570;-71
2022/06/02 09:05:36;;;;;;;5.03;1.70;;;;;;;;;;5015334;28;93079;-71
2022/06/02 09:08:29;;;;;;;3.72;1.70;;;;;;;;;;5007177;28;93422;-71
2022/06/02 09:11:01;;;;;;;5.35;1.70;;;;;;;;;;4999230;28;92592;-71
2022/06/02 09:13:27;;;;;;;2.17;1.50;;;;;;;;;;4995112;28;93149;-71
2022/06/02 09:16:00;;;;;;;6.30;2.10;;;;;;;;;;5004779;28;95558;-72
2022/06/02 09:18:45;;;;;;;2.20;1.60;;;;;;;;;;5004864;28;92495;-71
2022/06/02 09:21:40;;;;;;;3.08;1.88;;;;;;;;;;5000062;28;93685;-72
2022/06/02 09:24:25;;;;;;;3.67;1.98;;;;;;;;;;5005286;28;94317;-72
2022/06/02 09:26:51;;;;;;;1.80;1.25;;;;;;;;;;4993523;27;93802;-71
2022/06/02 09:29:20;;;;;;;1.55;1.40;;;;;;;;;;4995912;28;93065;-71
2022/06/02 09:31:58;;;;;;;3.78;1.35;;;;;;;;;;4996859;28;92955;-72
2022/06/02 09:34:54;;;;;;;3.38;1.40;;;;;;;;;;4994653;28;92967;-71
2022/06/02 09:37:24;;;;;;;6.15;2.17;;;;;;;;;;4980309;28;94420;-72
2022/06/02 09:40:09;;;;;;;3.53;1.60;;;;;;;;;;4992489;28;93454;-72
2022/06/02 09:42:42;;;;;;;3.78;1.30;;;;;;;;;;4991896;28;96510;-72
2022/06/02 09:45:12;;;;;;;2.60;1.45;;;;;;;;;;4991617;28;93729;-72
2022/06/02 09:47:56;;;;;;;4.00;1.42;;;;;;;;;;4989132;28;93319;-72
2022/06/02 09:50:32;;;;;;;2.85;1.50;;;;;;;;;;4994896;28;93774;-72
2022/06/02 09:52:58;;;;;;;5.38;1.48;;;;;;;;;;4992288;28;94100;-71
2022/06/02 09:55:30;;;;;;;3.35;1.92;;;;;;;;;;4992360;28;94044;-72
2022/06/02 09:58:02;;;;;;;5.45;1.80;;;;;;;;;;4991872;28;93650;-71
2022/06/02 10:00:32;;;;;;;1.70;1.60;;;;;;;;;;4991945;28;93989;-71
2022/06/02 10:02:58;;;;;;;2.00;1.77;;;;;;;;;;4993864;28;93378;-71
2022/06/02 10:05:33;;;;;;;2.10;1.75;;;;;;;;;;4993863;28;93541;-71
2022/06/02 10:08:02;;;;;;;1.63;1.52;;;;;;;;;;4991504;28;96294;-71
2022/06/02 10:10:47;;;;;;;3.95;1.80;;;;;;;;;;4989391;28;94606;-71
2022/06/02 10:13:32;;;;;;;3.40;1.90;;;;;;;;;;4990555;28;92636;-72
2022/06/02 10:16:16;;;;;;;2.42;1.40;;;;;;;;;;4994827;28;94234;-74
2022/06/02 10:18:55;;;;;;;3.88;1.23;;;;;;;;;;4996593;28;93432;-74
2022/06/02 10:21:31;;;;;;;2.97;1.35;;;;;;;;;;4992917;28;92452;-72
2022/06/02 10:24:15;;;;;;;2.58;1.40;;;;;;;;;;4994763;28;92915;-73
2022/06/02 10:27:03;;;;;;;2.47;1.40;;;;;;;;;;4998070;28;92697;-73
2022/06/02 10:29:29;;;;;;;3.35;1.95;;;;;;;;;;4996089;28;92528;-73
2022/06/02 10:32:15;;;;;;;6.32;1.60;;;;;;;;;;4994403;28;93407;-73
2022/06/02 10:34:51;;;;;;;3.97;1.75;;;;;;;;;;5007684;28;94918;-72
2022/06/02 10:37:43;;;;;;;6.78;1.88;;;;;;;;;;5014270;28;95380;-72
2022/06/02 10:40:18;;;;;;;1.73;1.60;;;;;;;;;;5013937;28;93436;-73
2022/06/02 10:42:47;;;;;;;7.28;1.50;;;;;;;;;;4998079;28;93827;-73
2022/06/02 10:45:33;;;;;;;3.05;1.33;;;;;;;;;;4995112;28;93817;-73
2022/06/02 10:48:20;;;;;;;4.35;1.67;;;;;;;;;;4994525;28;94290;-73
2022/06/02 10:51:06;;;;;;;2.55;1.98;;;;;;;;;;4993640;28;93012;-74
2022/06/02 10:53:33;;;;;;;2.30;2.10;;;;;;;;;;4997231;28;94316;-73
2022/06/02 10:56:15;;;;;;;3.53;2.15;;;;;;;;;;4993061;28;92865;-73
2022/06/02 10:59:01;;;;;;;1.90;1.55;;;;;;;;;;4993874;28;94273;-73
2022/06/02 11:01:47;;;;;;;4.05;2.72;;;;;;;;;;4995603;28;95855;-73
2022/06/02 11:04:13;;;;;;;2.75;2.53;;;;;;;;;;5009186;28;93484;-72
2022/06/02 11:06:40;;;;;;;2.83;2.53;;;;;;;;;;5005923;28;93885;-72
2022/06/02 11:09:06;;;;;;;4.78;2.60;;;;;;;;;;4996022;28;94593;-72
2022/06/02 11:11:33;;;;;;;3.78;2.65;;;;;;;;;;4991442;28;93048;-72
2022/06/02 11:14:17;;;;;;;4.28;2.38;;;;;;;;;;4993964;28;93071;-71
2022/06/02 11:16:50;;;;;;;12.00;7.93;;;;;;;;;;4995365;28;94147;-71
2022/06/02 11:19:16;;;;;;;2.83;2.55;;;;;;;;;;4999275;28;93214;-71
2022/06/02 11:22:05;;;;;;;3.63;2.08;;;;;;;;;;4992940;27;94440;-72
2022/06/02 11:24:32;;;;;;;3.53;2.05;;;;;;;;;;4992670;28;92488;-71
2022/06/02 11:26:58;;;;;;;11.45;3.25;;;;;;;;;;4990300;28;95280;-69
2022/06/02 11:29:24;;;;;;;3.03;2.40;;;;;;;;;;4991009;28;93773;-69
2022/06/02 11:32:06;;;;;;;3.03;2.50;;;;;;;;;;4989078;28;94100;-69
2022/06/02 11:34:41;;;;;;;2.73;1.90;;;;;;;;;;4996062;28;94013;-70
2022/06/02 11:37:31;;;;;;;4.88;2.17;;;;;;;;;;4991545;28;93467;-69
2022/06/02 11:40:36;;;;;;;3.22;1.90;;;;;;;;;;4998335;28;92660;-69
2022/06/02 11:43:13;;;;;;;1.92;1.20;;;;;;;;;;4998442;27;92952;-71
2022/06/02 11:45:54;;;;;;;1.77;1.67;;;;;;;;;;4992952;28;92250;-70
2022/06/02 11:48:27;;;;;;;1.85;1.52;;;;;;;;;;4993138;28;93162;-69
2022/06/02 11:51:05;;;;;;;1.88;1.77;;;;;;;;;;4994094;28;93763;-69
2022/06/02 11:53:51;;;;;;;2.03;1.65;;;;;;;;;;4994026;28;96867;-70
2022/06/02 11:56:44;;;;;;;3.42;1.40;;;;;;;;;;4991873;28;97894;-69
2022/06/02 11:59:46;;;;;;;1.50;1.40;;;;;;;;;;4981259;28;94173;-69
2022/06/02 12:02:15;;;;;;;1.30;1.20;;;;;;;;;;4962778;28;92613;-68
2022/06/02 12:05:00;;;;;;;2.85;1.80;;;;;;;;;;4988453;28;94091;-69
2022/06/02 12:07:39;;;;;;;2.50;2.30;;;;;;;;;;4989790;28;93964;-69
2022/06/02 12:10:18;;;;;;;1.80;1.70;;;;;;;;;;4995944;27;93942;-69
2022/06/02 12:12:51;;;;;;;3.40;1.65;;;;;;;;;;4993246;28;92911;-69
2022/06/02 12:15:21;;;;;;;1.50;1.30;;;;;;;;;;4988892;28;93821;-69
2022/06/02 12:18:06;;;;;;;1.38;1.27;;;;;;;;;;4994485;28;94017;-69
2022/06/02 12:20:45;;;;;;;3.13;1.02;;;;;;;;;;4992541;28;97029;-69
2022/06/02 12:23:17;;;;;;;0.93;0.75;;;;;;;;;;4993285;28;94445;-69
2022/06/02 12:25:53;;;;;;;3.28;0.93;;;;;;;;;;4995337;28;94889;-69
2022/06/02 12:28:25;;;;;;;1.45;1.35;;;;;;;;;;5001574;28;93852;-69
2022/06/02 12:30:54;;;;;;;1.17;1.10;;;;;;;;;;4995161;28;93261;-70
2022/06/02 12:33:35;;;;;;;2.40;0.82;;;;;;;;;;4994569;28;94048;-69
2022/06/02 12:36:05;;;;;;;1.35;0.98;;;;;;;;;;5006908;28;94108;-70
2022/06/02 12:38:48;;;;;;;4.82;1.27;;;;;;;;;;5001740;28;92805;-70
2022/06/02 12:41:33;;;;;;;1.63;1.10;;;;;;;;;;4994273;28;93356;-70
2022/06/02 12:44:00;;;;;;;4.97;0.90;;;;;;;;;;4994613;28;92834;-70
2022/06/02 12:46:38;;;;;;;1.17;1.08;;;;;;;;;;4994157;28;94791;-70
2022/06/02 12:49:23;;;;;;;0.90;0.90;;;;;;;;;;4998341;28;94281;-70
2022/06/02 12:51:49;;;;;;;0.95;0.75;;;;;;;;;;4995956;28;94029;-69
2022/06/02 12:54:25;;;;;;;0.93;0.85;;;;;;;;;;4996206;28;93304;-69
2022/06/02 12:56:52;;;;;;;2.90;1.00;;;;;;;;;;4995143;28;93207;-70
2022/06/02 12:59:37;;;;;;;1.67;1.23;;;;;;;;;;4996074;28;93995;-70
2022/06/02 13:02:05;;;;;;;0.93;0.85;;;;;;;;;;4995483;28;93617;-69
2022/06/02 13:04:31;;;;;;;2.05;0.90;;;;;;;;;;5008731;28;92118;-69
2022/06/02 13:07:13;;;;;;;0.70;0.70;;;;;;;;;;4996351;28;92456;-69
2022/06/02 13:09:59;;;;;;;2.23;0.87;;;;;;;;;;4994175;28;94209;-69
2022/06/02 13:12:43;;;;;;;1.40;0.90;;;;;;;;;;4996016;28;94896;-70
2022/06/02 13:15:28;;;;;;;0.70;0.70;;;;;;;;;;4995099;28;93350;-69
2022/06/02 13:18:12;;;;;;;0.70;0.70;;;;;;;;;;4994987;28;92613;-70
2022/06/02 13:20:39;;;;;;;1.92;0.82;;;;;;;;;;4995069;28;92566;-70
2022/06/02 13:23:24;;;;;;;1.02;1.02;;;;;;;;;;4995299;28;93676;-69
2022/06/02 13:26:17;;;;;;;2.70;1.13;;;;;;;;;;4995196;28;92616;-70
2022/06/02 13:28:55;;;;;;;1.20;1.10;;;;;;;;;;4995326;28;93781;-70
2022/06/02 13:31:40;;;;;;;1.85;1.27;;;;;;;;;;4994636;28;91734;-69
2022/06/02 13:34:10;;;;;;;4.57;1.10;;;;;;;;;;4995218;28;92508;-69
2022/06/02 13:36:59;;;;;;;0.98;0.98;;;;;;;;;;4998083;28;93962;-70
2022/06/02 13:39:44;;;;;;;1.17;1.05;;;;;;;;;;4992817;28;95435;-70
2022/06/02 13:42:29;;;;;;;1.10;1.10;;;;;;;;;;4995364;28;96410;-69
2022/06/02 13:45:07;;;;;;;2.45;1.38;;;;;;;;;;4993968;28;93274;-70
2022/06/02 13:47:34;;;;;;;1.10;1.00;;;;;;;;;;4994966;28;92470;-70
2022/06/02 13:50:19;;;;;;;0.90;0.90;;;;;;;;;;4995254;28;93920;-71
2022/06/02 13:52:49;;;;;;;1.33;0.82;;;;;;;;;;4994758;28;93099;-71
2022/06/02 13:58:21;;;;;;;2.25;1.45;;;;;;;;;;4998803;28;93919;-71
2022/06/02 14:01:06;;;;;;;5.13;1.05;;;;;;;;;;4993945;28;92966;-71
2022/06/02 14:03:45;;;;;;;1.75;1.13;;;;;;;;;;5005180;28;92994;-70
2022/06/02 14:06:13;;;;;;;2.85;1.40;;;;;;;;;;5012160;28;95693;-70
2022/06/02 14:08:58;;;;;;;1.75;1.10;;;;;;;;;;5012980;28;95967;-70
2022/06/02 14:11:43;;;;;;;2.70;1.00;;;;;;;;;;4995044;28;93904;-70
2022/06/02 14:14:23;;;;;;;2.08;1.20;;;;;;;;;;4994305;28;93382;-69
2022/06/02 14:17:08;;;;;;;2.10;1.33;;;;;;;;;;4994684;28;92467;-69
2022/06/02 14:19:37;;;;;;;3.47;1.13;;;;;;;;;;4994128;28;93087;-69
2022/06/02 14:22:33;;;;;;;2.15;1.33;;;;;;;;;;4997830;28;92976;-70
2022/06/02 14:25:02;;;;;;;2.35;1.35;;;;;;;;;;4985355;28;92988;-70
2022/06/02 14:27:40;;;;;;;3.13;1.48;;;;;;;;;;4996837;28;95580;-69
2022/06/02 14:30:14;;;;;;;1.73;1.17;;;;;;;;;;4994882;28;92484;-69
2022/06/02 14:32:58;;;;;;;2.28;1.10;;;;;;;;;;4992665;28;94892;-69
2022/06/02 14:35:25;;;;;;;2.75;1.40;;;;;;;;;;4993722;28;93348;-70
2022/06/02 14:38:04;;;;;;;2.05;1.30;;;;;;;;;;4994430;28;92509;-69
2022/06/02 14:40:36;;;;;;;1.15;1.00;;;;;;;;;;4994022;28;93858;-69
2022/06/02 14:43:12;;;;;;;2.10;1.08;;;;;;;;;;4993371;28;94644;-70
2022/06/02 14:45:57;;;;;;;1.20;1.20;;;;;;;;;;4996198;28;92432;-69
2022/06/02 14:48:23;;;;;;;2.35;1.30;;;;;;;;;;4993426;28;93063;-69
2022/06/02 14:51:08;;;;;;;1.30;1.20;;;;;;;;;;4994758;28;91849;-70
2022/06/02 14:53:37;;;;;;;3.30;1.15;;;;;;;;;;4994275;28;92480;-69
2022/06/02 14:56:09;;;;;;;3.40;1.25;;;;;;;;;;4993705;28;93558;-70
2022/06/02 14:58:36;;;;;;;;;;;;;;;;;;4993037;28;94885;-70
2022/06/02 15:01:14;;;;;;;2.42;1.60;;;;;;;;;;4994760;28;125886;-69
2022/06/02 15:04:00;;;;;;;1.67;1.08;;;;;;;;;;5004516;28;94192;-69
2022/06/02 15:06:26;;;;;;;5.25;1.25;;;;;;;;;;5013702;28;92423;-69
2022/06/02 15:08:58;;;;;;;1.65;1.10;;;;;;;;;;5016089;28;93329;-69
2022/06/02 15:11:33;;;;;;;1.38;1.33;;;;;;;;;;4999175;28;92645;-69
2022/06/02 15:14:07;;;;;;;2.65;1.20;;;;;;;;;;4993981;28;92907;-69
2022/06/02 15:16:51;;;;;;;1.77;1.65;;;;;;;;;;4993980;28;93143;-69
2022/06/02 15:19:17;;;;;;;3.17;1.42;;;;;;;;;;4993926;28;92499;-69
2022/06/02 15:22:19;;;;;;;1.40;1.30;;;;;;;;;;4993847;28;93995;-70
2022/06/02 15:24:57;;;;;;;1.67;1.57;;;;;;;;;;4990870;28;96766;-70
2022/06/02 15:27:34;;;;;;;1.13;1.05;;;;;;;;;;4994024;28;92845;-69
2022/06/02 15:30:13;;;;;;;1.45;1.15;;;;;;;;;;5008161;28;93650;-69
2022/06/02 15:32:51;;;;;;;2.70;1.25;;;;;;;;;;5009988;28;93408;-70
2022/06/02 15:35:40;;;;;;;1.40;1.30;;;;;;;;;;5013664;28;92854;-70
2022/06/02 15:38:18;;;;;;;1.95;1.42;;;;;;;;;;5007562;28;93377;-71
2022/06/02 15:40:51;;;;;;;2.13;1.40;;;;;;;;;;4992762;28;94288;-70
2022/06/02 15:43:35;;;;;;;1.98;1.25;;;;;;;;;;4996259;28;93906;-69